Time;durP1;ratioP1;P1;durP2;ratioP2;P2;SDS_P1;SDS_P2;PMS_P1;PMS_P2;Temp;Humidity;BMP_temperature;BMP_pressure;BME280_temperature;BME280_humidity;BME280_pressure;Samples;Min_cycle;Max_cycle;Signal;HPM_P1;HPM_P2
2022/05/13 00:01:28;;;;;;;;;6.50;6.00;;;;;;;;5140946;27;11338;-73
2022/05/13 00:03:54;;;;;;;;;3.75;2.50;;;;;;;;5141274;27;11661;-73
2022/05/13 00:06:20;;;;;;;;;9.00;3.50;;;;;;;;5140992;27;11308;-73
2022/05/13 00:08:45;;;;;;;;;4.00;4.00;;;;;;;;5140871;27;10448;-73
2022/05/13 00:11:11;;;;;;;;;7.00;6.00;;;;;;;;5140660;27;11377;-73
2022/05/13 00:13:37;;;;;;;;;4.00;4.00;;;;;;;;5140696;27;8889;-72
2022/05/13 00:16:04;;;;;;;;;2.00;2.00;;;;;;;;5140951;27;8805;-71
2022/05/13 00:18:29;;;;;;;;;3.50;3.00;;;;;;;;5122364;27;9141;-72
2022/05/13 00:20:54;;;;;;;;;2.00;2.00;;;;;;;;5140194;27;11379;-72
2022/05/13 00:23:20;;;;;;;;;4.50;4.25;;;;;;;;5139321;27;10496;-72
2022/05/13 00:25:45;;;;;;;;;2.75;2.00;;;;;;;;5140627;27;11504;-71
2022/05/13 00:28:11;;;;;;;;;2.25;2.25;;;;;;;;5140371;27;12410;-72
2022/05/13 00:30:38;;;;;;;;;5.75;4.25;;;;;;;;5140047;27;8802;-72
2022/05/13 00:33:03;;;;;;;;;3.00;3.00;;;;;;;;5140820;27;9707;-72
2022/05/13 00:35:28;;;;;;;;;3.75;2.00;;;;;;;;5140654;27;11370;-72
2022/05/13 00:37:54;;;;;;;;;2.75;2.75;;;;;;;;5140469;27;9483;-72
2022/05/13 00:40:20;;;;;;;;;2.00;2.00;;;;;;;;5140188;27;11603;-72
2022/05/13 00:42:46;;;;;;;;;6.00;3.00;;;;;;;;5140190;27;8771;-72
2022/05/13 00:45:15;;;;;;;;;4.75;3.50;;;;;;;;5121567;27;11352;-72
2022/05/13 00:47:40;;;;;;;;;3.50;3.00;;;;;;;;5140243;27;11691;-72
2022/05/13 00:50:07;;;;;;;;;6.50;3.00;;;;;;;;5139513;27;11344;-72
2022/05/13 00:52:32;;;;;;;;;6.25;3.00;;;;;;;;5140795;27;8758;-73
2022/05/13 00:55:00;;;;;;;;;4.00;2.25;;;;;;;;5140633;27;12161;-72
2022/05/13 00:57:26;;;;;;;;;7.25;3.00;;;;;;;;5139834;27;12645;-72
2022/05/13 00:59:53;;;;;;;;;1.50;1.50;;;;;;;;5138988;27;11533;-72
2022/05/13 01:02:19;;;;;;;;;2.25;2.25;;;;;;;;5140237;27;11359;-72
2022/05/13 01:04:45;;;;;;;;;5.75;4.00;;;;;;;;5139812;27;11605;-72
2022/05/13 01:07:13;;;;;;;;;3.25;3.00;;;;;;;;5139641;27;11880;-72
2022/05/13 01:09:41;;;;;;;;;5.25;3.00;;;;;;;;5139844;27;12362;-72
2022/05/13 01:12:09;;;;;;;;;5.25;5.25;;;;;;;;5140482;27;11462;-72
2022/05/13 01:14:40;;;;;;;;;5.00;3.00;;;;;;;;5139536;27;11506;-72
2022/05/13 01:20:09;;;;;;;;;6.00;4.75;;;;;;;;5139668;27;11338;-72
2022/05/13 01:22:38;;;;;;;;;6.75;4.00;;;;;;;;5139444;27;11440;-72
2022/05/13 01:25:04;;;;;;;;;5.50;2.75;;;;;;;;5121072;27;11350;-72
2022/05/13 01:27:29;;;;;;;;;3.75;3.50;;;;;;;;5139396;27;11439;-72
2022/05/13 01:29:55;;;;;;;;;3.00;2.75;;;;;;;;5139336;27;11498;-72
2022/05/13 01:32:20;;;;;;;;;3.75;2.50;;;;;;;;5139236;27;10493;-72
2022/05/13 01:34:45;;;;;;;;;8.00;3.50;;;;;;;;5138918;27;8796;-73
2022/05/13 01:37:10;;;;;;;;;3.00;3.00;;;;;;;;5139181;27;11486;-73
2022/05/13 01:39:36;;;;;;;;;7.00;3.00;;;;;;;;5139650;27;11361;-72
2022/05/13 01:42:01;;;;;;;;;5.75;4.50;;;;;;;;5140195;27;8775;-73
2022/05/13 01:44:26;;;;;;;;;3.50;2.75;;;;;;;;5139520;27;11304;-73
2022/05/13 01:46:51;;;;;;;;;3.00;3.00;;;;;;;;5139627;27;11368;-73
2022/05/13 01:49:17;;;;;;;;;2.75;2.75;;;;;;;;5140007;27;10478;-73
2022/05/13 01:51:42;;;;;;;;;2.75;2.75;;;;;;;;5139742;27;11329;-73
2022/05/13 01:54:07;;;;;;;;;2.50;2.00;;;;;;;;5139838;27;8794;-73
2022/05/13 01:56:32;;;;;;;;;5.75;2.00;;;;;;;;5139477;27;8758;-73
2022/05/13 01:58:58;;;;;;;;;3.00;3.00;;;;;;;;5120432;27;9177;-73
2022/05/13 02:01:23;;;;;;;;;5.25;3.00;;;;;;;;5138967;27;10795;-73
2022/05/13 02:03:48;;;;;;;;;3.50;3.50;;;;;;;;5138882;27;9003;-73
2022/05/13 02:06:24;;;;;;;;;5.00;5.00;;;;;;;;5138945;27;12507;-73
2022/05/13 02:08:50;;;;;;;;;3.00;3.00;;;;;;;;5119825;27;13761;-73
2022/05/13 02:11:17;;;;;;;;;5.00;3.00;;;;;;;;5139618;27;11371;-73
2022/05/13 02:13:42;;;;;;;;;5.00;2.00;;;;;;;;5120314;27;11346;-73
2022/05/13 02:16:08;;;;;;;;;2.00;2.00;;;;;;;;5139049;27;11405;-73
2022/05/13 02:18:34;;;;;;;;;5.50;2.00;;;;;;;;5139176;27;8778;-73
2022/05/13 02:20:59;;;;;;;;;3.00;3.00;;;;;;;;5138974;27;8818;-73
2022/05/13 02:23:24;;;;;;;;;2.25;2.25;;;;;;;;5138941;27;10260;-73
2022/05/13 02:25:50;;;;;;;;;8.50;3.00;;;;;;;;5138737;27;11510;-73
2022/05/13 02:28:16;;;;;;;;;4.50;2.00;;;;;;;;5120542;27;13880;-72
2022/05/13 02:30:41;;;;;;;;;5.00;3.00;;;;;;;;5139342;27;8798;-72
2022/05/13 02:33:07;;;;;;;;;2.75;2.75;;;;;;;;5139166;27;10487;-72
2022/05/13 02:35:32;;;;;;;;;2.00;2.00;;;;;;;;5138958;27;11481;-72
2022/05/13 02:37:58;;;;;;;;;2.50;2.00;;;;;;;;5120079;27;10581;-73
2022/05/13 02:41:11;;;;;;;;;4.00;2.75;;;;;;;;5138632;27;8818;-73
2022/05/13 02:43:12;;;;;;;;;2.25;2.25;;;;;;;;5138358;27;11639;-73
2022/05/13 02:45:38;;;;;;;;;4.25;2.75;;;;;;;;5138481;27;11373;-72
2022/05/13 02:48:03;;;;;;;;;2.00;2.00;;;;;;;;5141728;27;11331;-72
2022/05/13 02:50:28;;;;;;;;;2.75;2.75;;;;;;;;5142293;27;11306;-72
2022/05/13 02:52:53;;;;;;;;;3.00;2.00;;;;;;;;5141963;27;8847;-73
2022/05/13 02:55:19;;;;;;;;;2.00;2.00;;;;;;;;5141999;27;11305;-73
2022/05/13 02:57:45;;;;;;;;;2.25;2.25;;;;;;;;5142135;27;8931;-72
2022/05/13 03:00:10;;;;;;;;;6.50;3.00;;;;;;;;5142325;27;8814;-72
2022/05/13 03:02:36;;;;;;;;;3.00;2.00;;;;;;;;5142065;27;12638;-73
2022/05/13 03:05:01;;;;;;;;;3.50;2.00;;;;;;;;5123215;27;10686;-73
2022/05/13 03:07:27;;;;;;;;;4.50;3.00;;;;;;;;5142200;27;8790;-72
2022/05/13 03:09:52;;;;;;;;;4.50;2.75;;;;;;;;5141810;27;8935;-72
2022/05/13 03:12:17;;;;;;;;;3.50;3.00;;;;;;;;5142161;27;8805;-73
2022/05/13 03:14:43;;;;;;;;;5.00;3.00;;;;;;;;5141561;27;13069;-73
2022/05/13 03:17:08;;;;;;;;;3.50;2.00;;;;;;;;5122786;27;11460;-73
2022/05/13 03:19:34;;;;;;;;;3.00;2.00;;;;;;;;5141286;27;10341;-73
2022/05/13 03:22:00;;;;;;;;;2.00;2.00;;;;;;;;5123202;27;9535;-73
2022/05/13 03:24:25;;;;;;;;;5.25;2.00;;;;;;;;5142256;27;11542;-72
2022/05/13 03:26:50;;;;;;;;;0.00;0.00;;;;;;;;5142402;27;8938;-72
2022/05/13 03:29:16;;;;;;;;;3.00;3.00;;;;;;;;5141618;27;10231;-72
2022/05/13 03:31:41;;;;;;;;;2.00;2.00;;;;;;;;5142206;27;8946;-72
2022/05/13 03:34:06;;;;;;;;;1.00;1.00;;;;;;;;5142033;27;9477;-72
2022/05/13 03:36:32;;;;;;;;;2.75;2.00;;;;;;;;5141938;27;8809;-72
2022/05/13 03:38:57;;;;;;;;;2.00;2.00;;;;;;;;5141844;27;10635;-71
2022/05/13 03:41:22;;;;;;;;;2.00;2.00;;;;;;;;5141995;27;8810;-72
2022/05/13 03:43:48;;;;;;;;;2.00;2.00;;;;;;;;5141599;27;8790;-71
2022/05/13 03:46:13;;;;;;;;;5.00;2.00;;;;;;;;5141575;27;8802;-71
2022/05/13 03:48:38;;;;;;;;;5.25;2.00;;;;;;;;5141981;27;8912;-71
2022/05/13 03:51:04;;;;;;;;;3.00;1.50;;;;;;;;5140917;27;9522;-71
2022/05/13 03:53:29;;;;;;;;;3.00;3.00;;;;;;;;5119286;27;11839;-71
2022/05/13 03:55:55;;;;;;;;;6.00;3.00;;;;;;;;5140327;27;8874;-70
2022/05/13 03:58:20;;;;;;;;;3.50;3.00;;;;;;;;5120266;27;8802;-72
2022/05/13 04:00:46;;;;;;;;;2.75;2.75;;;;;;;;5139179;27;8853;-72
2022/05/13 04:03:12;;;;;;;;;1.00;1.00;;;;;;;;5137620;27;13242;-72
2022/05/13 04:11:05;;;;;;;;;5.00;2.75;;;;;;;;5138731;27;11475;-70
2022/05/13 04:16:13;;;;;;;;;5.50;3.00;;;;;;;;5139761;27;11317;-72
2022/05/13 04:18:45;;;;;;;;;5.00;2.00;;;;;;;;5138371;27;12280;-72
2022/05/13 04:21:12;;;;;;;;;4.00;2.00;;;;;;;;5137230;27;9778;-72
2022/05/13 04:23:39;;;;;;;;;5.00;2.00;;;;;;;;5139413;27;11401;-72
2022/05/13 04:26:05;;;;;;;;;5.00;5.00;;;;;;;;5139466;27;11415;-71
2022/05/13 04:28:30;;;;;;;;;3.00;3.00;;;;;;;;5139655;27;11412;-72
2022/05/13 04:30:55;;;;;;;;;3.00;2.75;;;;;;;;5120846;27;10691;-70
2022/05/13 04:33:21;;;;;;;;;4.00;3.00;;;;;;;;5139093;27;8782;-70
2022/05/13 04:35:46;;;;;;;;;2.00;2.00;;;;;;;;5138948;27;12953;-71
2022/05/13 04:38:11;;;;;;;;;3.50;3.00;;;;;;;;5139361;27;8790;-71
2022/05/13 04:40:37;;;;;;;;;2.50;2.50;;;;;;;;5139040;27;10949;-72
2022/05/13 04:43:02;;;;;;;;;3.75;2.25;;;;;;;;5138754;27;11310;-72
2022/05/13 04:45:28;;;;;;;;;6.50;4.00;;;;;;;;5138453;27;13224;-73
2022/05/13 04:50:43;;;;;;;;;2.00;2.00;;;;;;;;5138654;27;10307;-74
2022/05/13 04:53:09;;;;;;;;;3.00;2.00;;;;;;;;5136309;27;11410;-72
2022/05/13 04:55:34;;;;;;;;;3.00;3.00;;;;;;;;5138401;27;11450;-72
2022/05/13 04:58:00;;;;;;;;;2.25;2.25;;;;;;;;5138516;27;8863;-72
2022/05/13 05:00:25;;;;;;;;;4.00;4.00;;;;;;;;5137755;27;11335;-72
2022/05/13 05:02:50;;;;;;;;;2.75;2.00;;;;;;;;5138532;27;11333;-71
2022/05/13 05:05:16;;;;;;;;;2.00;2.00;;;;;;;;5138572;27;11488;-71
2022/05/13 05:07:41;;;;;;;;;1.25;0.50;;;;;;;;5118984;27;8814;-71
2022/05/13 05:10:07;;;;;;;;;5.75;4.00;;;;;;;;5119926;27;13344;-71
2022/05/13 05:12:32;;;;;;;;;4.00;4.00;;;;;;;;5140589;27;11535;-75
2022/05/13 05:15:00;;;;;;;;;5.75;3.00;;;;;;;;5120376;27;10966;-71
2022/05/13 05:17:25;;;;;;;;;5.50;5.00;;;;;;;;5139164;27;10369;-71
2022/05/13 05:19:51;;;;;;;;;2.75;2.75;;;;;;;;5139895;27;11541;-71
2022/05/13 05:22:16;;;;;;;;;5.75;4.00;;;;;;;;5139600;27;11280;-70
2022/05/13 05:24:41;;;;;;;;;4.75;3.50;;;;;;;;5139300;27;11293;-71
2022/05/13 05:27:09;;;;;;;;;9.25;5.00;;;;;;;;5140134;27;11539;-72
2022/05/13 05:29:35;;;;;;;;;6.00;6.00;;;;;;;;5139727;27;11455;-71
2022/05/13 05:32:00;;;;;;;;;7.50;6.00;;;;;;;;5139556;27;11384;-72
2022/05/13 05:34:25;;;;;;;;;7.50;6.25;;;;;;;;5138507;27;8963;-72
2022/05/13 05:36:51;;;;;;;;;9.00;4.50;;;;;;;;5130296;27;8838;-72
2022/05/13 05:39:17;;;;;;;;;6.00;4.25;;;;;;;;5100337;28;13506;-72
2022/05/13 05:41:42;;;;;;;;;5.50;5.00;;;;;;;;5118935;28;11370;-71
2022/05/13 05:44:07;;;;;;;;;5.00;5.00;;;;;;;;5118737;28;11530;-72
2022/05/13 05:46:41;;;;;;;;;6.50;6.50;;;;;;;;5118778;28;8760;-73
2022/05/13 05:49:07;;;;;;;;;9.00;5.50;;;;;;;;5099721;28;11429;-70
2022/05/13 05:51:32;;;;;;;;;9.25;6.00;;;;;;;;5118389;28;11449;-71
2022/05/13 05:59:25;;;;;;;;;6.50;5.00;;;;;;;;5138266;27;12204;-72
2022/05/13 06:01:50;;;;;;;;;8.25;6.00;;;;;;;;5139125;27;11440;-70
2022/05/13 06:04:15;;;;;;;;;9.00;6.00;;;;;;;;5120569;27;12945;-71
2022/05/13 06:06:41;;;;;;;;;6.00;6.00;;;;;;;;5139688;27;8782;-71
2022/05/13 06:09:08;;;;;;;;;4.00;3.00;;;;;;;;5139730;27;8790;-71
2022/05/13 06:11:33;;;;;;;;;9.00;5.00;;;;;;;;5120295;27;9462;-71
2022/05/13 06:13:59;;;;;;;;;11.50;5.50;;;;;;;;5136629;27;11423;-72
2022/05/13 06:16:26;;;;;;;;;7.00;6.25;;;;;;;;5134791;27;21971;-72
2022/05/13 06:18:51;;;;;;;;;6.75;6.25;;;;;;;;5119140;27;21905;-71
2022/05/13 06:21:17;;;;;;;;;11.75;6.50;;;;;;;;5138249;27;11449;-72
2022/05/13 06:23:42;;;;;;;;;10.75;9.50;;;;;;;;5142473;27;21693;-72
2022/05/13 06:26:14;;;;;;;;;7.50;6.25;;;;;;;;5143386;27;8893;-72
2022/05/13 06:28:39;;;;;;;;;6.50;5.50;;;;;;;;5143070;27;21451;-72
2022/05/13 06:31:04;;;;;;;;;4.00;4.00;;;;;;;;5123409;27;11651;-71
2022/05/13 06:33:30;;;;;;;;;7.25;5.75;;;;;;;;5126932;27;11337;-73
2022/05/13 06:35:55;;;;;;;;;5.50;5.00;;;;;;;;5143034;27;11687;-71
2022/05/13 06:38:22;;;;;;;;;8.50;6.75;;;;;;;;5143379;27;11374;-73
2022/05/13 06:40:49;;;;;;;;;5.00;4.50;;;;;;;;5142786;27;11491;-72
2022/05/13 06:43:15;;;;;;;;;14.25;6.00;;;;;;;;5143831;27;12188;-71
2022/05/13 06:45:41;;;;;;;;;7.50;5.75;;;;;;;;5142666;27;22601;-71
2022/05/13 06:48:07;;;;;;;;;6.75;6.75;;;;;;;;5141698;27;21563;-71
2022/05/13 06:50:32;;;;;;;;;7.25;6.75;;;;;;;;5141882;27;11450;-71
2022/05/13 06:52:57;;;;;;;;;9.75;6.25;;;;;;;;5142371;27;9141;-71
2022/05/13 06:55:23;;;;;;;;;6.00;6.00;;;;;;;;5142191;27;10292;-69
2022/05/13 06:57:49;;;;;;;;;7.75;7.75;;;;;;;;5142149;27;11366;-70
2022/05/13 07:00:14;;;;;;;;;10.25;9.75;;;;;;;;5141792;27;11272;-69
2022/05/13 07:02:39;;;;;;;;;8.00;7.00;;;;;;;;5141247;27;24142;-68
2022/05/13 07:05:06;;;;;;;;;7.25;6.50;;;;;;;;5141989;27;21356;-69
2022/05/13 07:07:31;;;;;;;;;10.00;6.75;;;;;;;;5141363;27;12604;-69
2022/05/13 07:09:56;;;;;;;;;8.00;7.50;;;;;;;;5141999;27;21863;-69
2022/05/13 07:12:22;;;;;;;;;11.75;11.00;;;;;;;;5140627;27;21364;-69
2022/05/13 07:14:48;;;;;;;;;6.50;6.50;;;;;;;;5122112;27;24613;-71
2022/05/13 07:17:13;;;;;;;;;10.00;8.50;;;;;;;;5141150;27;22516;-70
2022/05/13 07:19:39;;;;;;;;;8.25;8.25;;;;;;;;5139302;27;21570;-71
2022/05/13 07:22:06;;;;;;;;;36.25;30.50;;;;;;;;5140554;27;21615;-71
2022/05/13 07:24:31;;;;;;;;;60.00;47.50;;;;;;;;5140351;27;22875;-71
2022/05/13 07:26:58;;;;;;;;;30.00;26.50;;;;;;;;5141312;27;12265;-72
2022/05/13 07:29:23;;;;;;;;;17.50;14.75;;;;;;;;5122528;27;10885;-71
2022/05/13 07:31:48;;;;;;;;;12.00;12.00;;;;;;;;5141277;27;13220;-71
2022/05/13 07:34:14;;;;;;;;;9.25;9.25;;;;;;;;5141014;27;11365;-71
2022/05/13 07:36:39;;;;;;;;;9.50;7.50;;;;;;;;5140487;27;22296;-71
2022/05/13 07:41:49;;;;;;;;;9.00;6.00;;;;;;;;5141078;27;11355;-71
2022/05/13 07:44:14;;;;;;;;;8.50;8.00;;;;;;;;5140773;27;11645;-72
2022/05/13 07:46:40;;;;;;;;;7.00;5.25;;;;;;;;5141232;27;10279;-71
2022/05/13 07:49:06;;;;;;;;;7.00;6.25;;;;;;;;5141158;27;11360;-72
2022/05/13 07:51:32;;;;;;;;;7.00;6.50;;;;;;;;5122158;27;8921;-73
2022/05/13 07:53:57;;;;;;;;;10.00;7.00;;;;;;;;5140256;27;9988;-74
2022/05/13 07:56:22;;;;;;;;;9.25;8.25;;;;;;;;5131699;27;21333;-74
2022/05/13 07:58:48;;;;;;;;;6.50;6.00;;;;;;;;5102506;28;21349;-73
2022/05/13 08:01:14;;;;;;;;;8.67;5.33;;;;;;;;5120564;28;11300;-72
2022/05/13 08:03:40;;;;;;;;;6.00;5.00;;;;;;;;5102153;28;12425;-73
2022/05/13 08:06:06;;;;;;;;;5.67;5.33;;;;;;;;5120352;28;11380;-73
2022/05/13 08:08:36;;;;;;;;;7.33;4.33;;;;;;;;5119854;28;11419;-74
2022/05/13 08:11:04;;;;;;;;;5.33;3.33;;;;;;;;5133111;27;10369;-72
2022/05/13 08:13:31;;;;;;;;;4.67;4.67;;;;;;;;5139875;27;8993;-72
2022/05/13 08:15:56;;;;;;;;;4.00;4.00;;;;;;;;5138507;27;11663;-72
2022/05/13 08:18:22;;;;;;;;;7.00;6.00;;;;;;;;5138354;27;9617;-72
2022/05/13 08:20:48;;;;;;;;;4.00;4.00;;;;;;;;5138958;27;8933;-72
2022/05/13 08:23:13;;;;;;;;;5.25;4.25;;;;;;;;5140058;27;9621;-71
2022/05/13 08:25:39;;;;;;;;;5.67;4.00;;;;;;;;5138648;27;11452;-72
2022/05/13 08:28:05;;;;;;;;;2.33;1.00;;;;;;;;5140616;27;8813;-71
2022/05/13 08:30:30;;;;;;;;;5.00;4.00;;;;;;;;5139785;27;10550;-71
2022/05/13 08:32:56;;;;;;;;;5.00;5.00;;;;;;;;5141025;27;10622;-71
2022/05/13 08:35:22;;;;;;;;;7.00;6.00;;;;;;;;5140004;27;8782;-72
2022/05/13 08:37:49;;;;;;;;;5.00;5.00;;;;;;;;5139752;27;8825;-71
2022/05/13 08:40:33;;;;;;;;;4.25;4.25;;;;;;;;5140146;27;8898;-71
2022/05/13 08:42:59;;;;;;;;;5.75;5.00;;;;;;;;5139157;27;11616;-72
2022/05/13 08:45:25;;;;;;;;;4.00;4.00;;;;;;;;5138812;27;11463;-72
2022/05/13 08:47:56;;;;;;;;;6.00;4.00;;;;;;;;5139905;27;10373;-71
2022/05/13 08:50:40;;;;;;;;;5.00;5.00;;;;;;;;5140054;27;8782;-70
2022/05/13 08:53:23;;;;;;;;;5.25;5.25;;;;;;;;5138973;27;9140;-71
2022/05/13 08:55:49;;;;;;;;;7.00;6.00;;;;;;;;5139476;27;9653;-71
2022/05/13 08:58:26;;;;;;;;;5.75;5.50;;;;;;;;5139207;27;11375;-72
2022/05/13 09:00:57;;;;;;;;;10.25;6.00;;;;;;;;5118686;27;12082;-72
2022/05/13 09:03:38;;;;;;;;;4.50;4.50;;;;;;;;5138369;27;21431;-73
2022/05/13 09:06:12;;;;;;;;;4.75;4.75;;;;;;;;5136631;27;22513;-73
2022/05/13 09:08:38;;;;;;;;;7.00;5.00;;;;;;;;5136159;27;9355;-73
2022/05/13 09:11:23;;;;;;;;;5.00;5.00;;;;;;;;5118602;27;13686;-73
2022/05/13 09:14:08;;;;;;;;;7.75;5.25;;;;;;;;5137684;27;8790;-73
2022/05/13 09:16:45;;;;;;;;;4.25;4.25;;;;;;;;5137875;27;11454;-73
2022/05/13 09:19:14;;;;;;;;;5.50;4.50;;;;;;;;5137301;27;9677;-73
2022/05/13 09:21:46;;;;;;;;;3.75;3.75;;;;;;;;5139990;27;11583;-72
2022/05/13 09:24:11;;;;;;;;;8.25;6.25;;;;;;;;5138998;27;11385;-72
2022/05/13 09:26:38;;;;;;;;;4.00;4.00;;;;;;;;5139223;27;10233;-72
2022/05/13 09:29:09;;;;;;;;;4.25;3.00;;;;;;;;5139908;27;11814;-72
2022/05/13 09:31:35;;;;;;;;;4.75;4.75;;;;;;;;5138350;27;9822;-72
2022/05/13 09:34:01;;;;;;;;;7.75;5.00;;;;;;;;5137685;27;10858;-73
2022/05/13 09:36:26;;;;;;;;;11.67;10.00;;;;;;;;5137792;27;12135;-71
2022/05/13 09:39:18;;;;;;;;;5.00;5.00;;;;;;;;5137242;27;23427;-71
2022/05/13 09:41:43;;;;;;;;;7.25;5.25;;;;;;;;5132089;27;22496;-70
2022/05/13 09:44:10;;;;;;;;;6.67;5.00;;;;;;;;5138815;27;12433;-71
2022/05/13 09:46:37;;;;;;;;;4.75;4.75;;;;;;;;5139385;27;11737;-70
2022/05/13 09:49:15;;;;;;;;;6.00;4.75;;;;;;;;5139029;27;11371;-71
2022/05/13 09:51:53;;;;;;;;;9.25;7.00;;;;;;;;5139055;27;9009;-71
2022/05/13 09:54:33;;;;;;;;;7.75;7.00;;;;;;;;5138659;27;11379;-71
2022/05/13 09:57:17;;;;;;;;;6.25;4.50;;;;;;;;5138515;27;8925;-71
2022/05/13 09:59:44;;;;;;;;;9.00;7.75;;;;;;;;5138524;27;11617;-70
2022/05/13 10:02:35;;;;;;;;;7.75;7.75;;;;;;;;5138796;27;11412;-71
2022/05/13 10:05:36;;;;;;;;;4.50;4.00;;;;;;;;5133300;27;8927;-71
2022/05/13 10:08:04;;;;;;;;;7.00;5.33;;;;;;;;5013005;28;11794;-70
2022/05/13 10:16:04;;;;;;;;;5.75;5.50;;;;;;;;5029632;28;11533;-71
2022/05/13 10:18:30;;;;;;;;;6.67;6.00;;;;;;;;5035233;28;10315;-71
2022/05/13 10:21:04;;;;;;;;;4.50;3.00;;;;;;;;5035003;28;12544;-70
2022/05/13 10:23:38;;;;;;;;;6.00;5.00;;;;;;;;5103894;27;12432;-71
2022/05/13 10:26:17;;;;;;;;;4.50;4.50;;;;;;;;5138360;27;10412;-72
2022/05/13 10:28:52;;;;;;;;;4.00;3.67;;;;;;;;5138615;27;11439;-71
2022/05/13 10:31:19;;;;;;;;;5.00;4.00;;;;;;;;5138598;27;10343;-72
2022/05/13 10:33:53;;;;;;;;;5.00;4.00;;;;;;;;5138257;27;11462;-72
2022/05/13 10:36:38;;;;;;;;;5.00;4.00;;;;;;;;5119305;27;9473;-72
2022/05/13 10:39:03;;;;;;;;;3.00;3.00;;;;;;;;5138361;27;9173;-72
2022/05/13 10:41:31;;;;;;;;;4.33;2.67;;;;;;;;5138327;27;8965;-72
2022/05/13 10:44:15;;;;;;;;;4.00;4.00;;;;;;;;5138759;27;11523;-71
2022/05/13 10:46:44;;;;;;;;;7.00;3.33;;;;;;;;5138124;27;10989;-72
2022/05/13 10:49:10;;;;;;;;;6.25;5.75;;;;;;;;5138286;27;11378;-73
2022/05/13 10:51:44;;;;;;;;;7.00;4.75;;;;;;;;5137715;27;11465;-70
2022/05/13 10:54:21;;;;;;;;;7.33;6.00;;;;;;;;5116193;27;11543;-71
2022/05/13 10:56:55;;;;;;;;;5.00;5.00;;;;;;;;5130665;27;10373;-71
2022/05/13 10:59:29;;;;;;;;;18.00;18.00;;;;;;;;5137374;27;10551;-72
2022/05/13 11:02:01;;;;;;;;;5.00;5.00;;;;;;;;5118752;27;24199;-72
2022/05/13 11:04:45;;;;;;;;;4.50;4.00;;;;;;;;5136598;27;22440;-73
2022/05/13 11:07:33;;;;;;;;;9.25;5.75;;;;;;;;5137869;27;10627;-74
2022/05/13 11:10:08;;;;;;;;;7.75;7.00;;;;;;;;5093203;27;12812;-73
2022/05/13 11:12:48;;;;;;;;;8.75;7.25;;;;;;;;5141549;27;11702;-73
2022/05/13 11:15:25;;;;;;;;;6.25;6.25;;;;;;;;5141640;27;11367;-73
2022/05/13 11:18:06;;;;;;;;;8.00;6.50;;;;;;;;5141214;27;10091;-72
2022/05/13 11:20:51;;;;;;;;;8.00;4.67;;;;;;;;5122353;27;13386;-72
2022/05/13 11:23:32;;;;;;;;;3.33;3.00;;;;;;;;5120011;27;9517;-72
2022/05/13 11:26:15;;;;;;;;;3.00;2.67;;;;;;;;5138574;27;11602;-72
2022/05/13 11:28:40;;;;;;;;;4.00;4.00;;;;;;;;5139170;27;10360;-72
2022/05/13 11:31:18;;;;;;;;;6.00;5.00;;;;;;;;5139293;27;12657;-73
2022/05/13 11:33:46;;;;;;;;;6.50;6.50;;;;;;;;5137091;27;8798;-73
2022/05/13 11:36:19;;;;;;;;;8.00;4.00;;;;;;;;5138839;27;10832;-73
2022/05/13 11:38:58;;;;;;;;;4.00;4.00;;;;;;;;5136943;27;11441;-74
2022/05/13 11:41:23;;;;;;;;;3.33;3.33;;;;;;;;5137056;27;9287;-71
2022/05/13 11:43:52;;;;;;;;;5.00;5.00;;;;;;;;5139412;27;11459;-71
2022/05/13 11:46:36;;;;;;;;;16.50;13.75;;;;;;;;5139056;27;11538;-78
2022/05/13 11:49:10;;;;;;;;;6.25;6.00;;;;;;;;5138950;27;22351;-79
2022/05/13 11:51:36;;;;;;;;;7.00;5.00;;;;;;;;5139203;27;22936;-80
2022/05/13 11:54:01;;;;;;;;;10.25;8.75;;;;;;;;5139164;27;10255;-80
2022/05/13 11:56:26;;;;;;;;;7.75;7.00;;;;;;;;5139054;27;22704;-79
2022/05/13 11:59:01;;;;;;;;;15.00;13.50;;;;;;;;5138607;27;21480;-79
2022/05/13 12:01:36;;;;;;;;;15.75;13.75;;;;;;;;5136852;27;22338;-86
2022/05/13 12:04:24;;;;;;;;;6.00;6.00;;;;;;;;5139041;27;10286;-74
2022/05/13 12:06:49;;;;;;;;;4.25;4.25;;;;;;;;5088485;27;22285;-74
2022/05/13 12:09:17;;;;;;;;;5.00;5.00;;;;;;;;5137912;27;11487;-74
2022/05/13 12:11:46;;;;;;;;;4.75;4.50;;;;;;;;5138680;27;11449;-74
2022/05/13 12:14:13;;;;;;;;;6.00;6.00;;;;;;;;5121389;27;13671;-73
2022/05/13 12:16:44;;;;;;;;;6.00;5.25;;;;;;;;5134887;27;11432;-74
2022/05/13 12:19:09;;;;;;;;;5.75;5.00;;;;;;;;5119547;27;9629;-74
2022/05/13 12:21:45;;;;;;;;;7.00;5.50;;;;;;;;5139021;27;11310;-75
2022/05/13 12:24:11;;;;;;;;;6.25;4.00;;;;;;;;5118200;27;13602;-74
2022/05/13 12:26:51;;;;;;;;;4.25;4.00;;;;;;;;5140604;27;11299;-74
2022/05/13 12:29:18;;;;;;;;;5.25;4.75;;;;;;;;5140611;27;8887;-73
2022/05/13 12:31:46;;;;;;;;;8.00;6.25;;;;;;;;5140431;27;12649;-73
2022/05/13 12:40:00;;;;;;;;;6.00;3.00;;;;;;;;5125225;27;9461;-73
2022/05/13 12:42:54;;;;;;;;;4.75;4.00;;;;;;;;5138003;27;11692;-73
2022/05/13 12:45:38;;;;;;;;;4.75;4.75;;;;;;;;5043667;28;10606;-74
2022/05/13 12:48:09;;;;;;;;;4.33;3.67;;;;;;;;5137866;27;9573;-72
2022/05/13 12:50:39;;;;;;;;;2.00;2.00;;;;;;;;5138077;27;10601;-72
2022/05/13 12:53:27;;;;;;;;;3.50;3.00;;;;;;;;5119413;27;14878;-72
2022/05/13 12:56:09;;;;;;;;;3.50;2.25;;;;;;;;5087063;27;10371;-72
2022/05/13 12:58:39;;;;;;;;;4.00;2.50;;;;;;;;5136447;27;9512;-73
2022/05/13 13:01:05;;;;;;;;;3.00;3.00;;;;;;;;5138423;27;11645;-76
2022/05/13 13:03:36;;;;;;;;;2.67;2.00;;;;;;;;5117997;27;13586;-71
2022/05/13 13:06:07;;;;;;;;;3.00;2.50;;;;;;;;5137910;27;10399;-71
2022/05/13 13:08:34;;;;;;;;;2.00;2.00;;;;;;;;5136489;27;11449;-74
2022/05/13 13:11:18;;;;;;;;;8.50;6.00;;;;;;;;5119396;27;13648;-72
2022/05/13 13:13:51;;;;;;;;;4.00;4.00;;;;;;;;5137958;27;10440;-71
2022/05/13 13:16:21;;;;;;;;;5.50;4.50;;;;;;;;5120130;27;10426;-71
2022/05/13 13:18:46;;;;;;;;;6.00;3.50;;;;;;;;5138836;27;11400;-71
2022/05/13 13:21:14;;;;;;;;;3.75;3.75;;;;;;;;5118432;27;12433;-71
2022/05/13 13:23:41;;;;;;;;;3.00;2.00;;;;;;;;5118775;27;11752;-71
2022/05/13 13:26:08;;;;;;;;;2.00;2.00;;;;;;;;5138822;27;10514;-71
2022/05/13 13:28:35;;;;;;;;;2.00;2.00;;;;;;;;5138106;27;9416;-71
2022/05/13 13:31:10;;;;;;;;;3.00;3.00;;;;;;;;5137087;27;9356;-71
2022/05/13 13:33:36;;;;;;;;;3.50;3.50;;;;;;;;5136279;27;9521;-71
2022/05/13 13:36:10;;;;;;;;;7.00;6.50;;;;;;;;5138271;27;9487;-71
2022/05/13 13:38:36;;;;;;;;;7.25;7.00;;;;;;;;5136576;27;10370;-72
2022/05/13 13:41:01;;;;;;;;;4.75;3.75;;;;;;;;5136573;27;10246;-70
2022/05/13 13:43:28;;;;;;;;;7.00;7.00;;;;;;;;5138088;27;11320;-71
2022/05/13 13:46:00;;;;;;;;;11.00;6.00;;;;;;;;5137464;27;11617;-71
2022/05/13 13:48:29;;;;;;;;;3.67;3.33;;;;;;;;5136891;27;23393;-70
2022/05/13 13:50:56;;;;;;;;;3.67;3.00;;;;;;;;5136734;27;22662;-70
2022/05/13 13:53:29;;;;;;;;;3.00;2.00;;;;;;;;5137402;27;9386;-70
2022/05/13 13:55:58;;;;;;;;;5.50;4.00;;;;;;;;5117061;27;12186;-71
2022/05/13 13:58:39;;;;;;;;;3.00;3.00;;;;;;;;5137310;27;10449;-71
2022/05/13 14:01:09;;;;;;;;;4.00;3.00;;;;;;;;5135338;27;11532;-71
2022/05/13 14:03:34;;;;;;;;;5.00;4.75;;;;;;;;5118187;27;9751;-71
2022/05/13 14:06:04;;;;;;;;;2.67;2.67;;;;;;;;5136753;27;11527;-72
2022/05/13 14:08:31;;;;;;;;;5.50;4.50;;;;;;;;5134957;27;11527;-71
2022/05/13 14:10:56;;;;;;;;;7.00;5.75;;;;;;;;5137510;27;11645;-71
2022/05/13 14:13:37;;;;;;;;;2.67;1.67;;;;;;;;5137608;27;12432;-71
2022/05/13 14:16:10;;;;;;;;;2.67;2.00;;;;;;;;5136787;27;11613;-71
2022/05/13 14:18:36;;;;;;;;;3.00;3.00;;;;;;;;5135599;27;10114;-71
2022/05/13 14:21:23;;;;;;;;;2.00;1.00;;;;;;;;5136874;27;10426;-70
2022/05/13 14:23:58;;;;;;;;;2.33;1.00;;;;;;;;5132851;27;8893;-70
2022/05/13 14:26:24;;;;;;;;;2.00;2.00;;;;;;;;5137077;27;9461;-72
2022/05/13 14:28:51;;;;;;;;;5.00;4.00;;;;;;;;5137238;27;10060;-72
2022/05/13 14:31:21;;;;;;;;;3.00;2.00;;;;;;;;5117895;27;9492;-73
2022/05/13 14:33:51;;;;;;;;;2.00;2.00;;;;;;;;5136577;27;9208;-72
2022/05/13 14:36:17;;;;;;;;;3.00;3.00;;;;;;;;5138174;27;9212;-72
2022/05/13 14:41:36;;;;;;;;;4.00;3.00;;;;;;;;5138067;27;10649;-72
2022/05/13 14:44:01;;;;;;;;;2.00;2.00;;;;;;;;5141533;27;9689;-71
2022/05/13 14:46:30;;;;;;;;;2.25;2.25;;;;;;;;5123385;27;10759;-71
2022/05/13 14:48:55;;;;;;;;;2.67;2.00;;;;;;;;5142575;27;8815;-72
2022/05/13 14:51:22;;;;;;;;;5.50;2.50;;;;;;;;5122997;27;11375;-71
2022/05/13 14:53:56;;;;;;;;;3.00;2.00;;;;;;;;5142060;27;11391;-71
2022/05/13 14:56:22;;;;;;;;;2.25;2.25;;;;;;;;5121447;27;11837;-74
2022/05/13 14:58:47;;;;;;;;;1.00;1.00;;;;;;;;5141050;27;11314;-70
2022/05/13 15:01:16;;;;;;;;;2.75;2.00;;;;;;;;5141349;27;11867;-74
2022/05/13 15:03:44;;;;;;;;;3.00;2.00;;;;;;;;5142239;27;10417;-72
2022/05/13 15:06:30;;;;;;;;;2.00;2.00;;;;;;;;5141434;27;9469;-74
2022/05/13 15:09:00;;;;;;;;;1.00;1.00;;;;;;;;5140988;27;9469;-73
2022/05/13 15:11:25;;;;;;;;;1.75;1.00;;;;;;;;5141559;27;9450;-75
2022/05/13 15:13:51;;;;;;;;;2.00;2.00;;;;;;;;5141511;27;9632;-72
2022/05/13 15:16:20;;;;;;;;;3.75;3.00;;;;;;;;5140655;27;10691;-73
2022/05/13 15:18:45;;;;;;;;;3.00;1.00;;;;;;;;5140770;27;10529;-73
2022/05/13 15:21:11;;;;;;;;;2.50;2.00;;;;;;;;5140022;27;9690;-72
2022/05/13 15:23:37;;;;;;;;;4.00;2.00;;;;;;;;5140279;27;10335;-71
2022/05/13 15:26:03;;;;;;;;;4.00;3.00;;;;;;;;5141261;27;9107;-71
2022/05/13 15:28:28;;;;;;;;;3.25;2.25;;;;;;;;5122169;27;9745;-73
2022/05/13 15:30:55;;;;;;;;;2.00;2.00;;;;;;;;5140955;27;11359;-73